createdAt,value
2018-12-20T00:01:37.415Z,26.05
2018-12-20T00:04:03.727Z,26.23
2018-12-20T00:06:30.061Z,26.23
2018-12-20T00:08:56.342Z,26.15
2018-12-20T00:11:22.742Z,26.15
2018-12-20T00:13:49.109Z,26.18
2018-12-20T00:16:15.457Z,26.15
2018-12-20T00:18:41.842Z,26.34
2018-12-20T00:21:08.179Z,26.29
2018-12-20T00:23:34.622Z,26.27
2018-12-20T00:26:00.922Z,26.38
2018-12-20T00:28:27.261Z,26.29
2018-12-20T00:30:53.653Z,26.37
2018-12-20T00:33:19.999Z,26.33
2018-12-20T00:35:46.365Z,26.29
2018-12-20T00:38:12.673Z,26.37
2018-12-20T00:40:39.054Z,26.34
2018-12-20T00:43:05.426Z,26.31
2018-12-20T00:45:31.829Z,26.23
2018-12-20T00:47:58.037Z,26.31
2018-12-20T00:50:24.479Z,26.25
2018-12-20T00:52:50.757Z,26.18
2018-12-20T00:55:17.073Z,26.11
2018-12-20T00:57:43.425Z,26.28
2018-12-20T01:00:09.819Z,26.38
2018-12-20T01:02:36.094Z,26.22
2018-12-20T01:05:02.612Z,25.45
2018-12-20T01:07:29.142Z,24.99
2018-12-20T01:09:55.510Z,25.06
2018-12-20T01:12:21.864Z,25.11
2018-12-20T01:14:48.314Z,25.31
2018-12-20T01:17:14.522Z,24.95
2018-12-20T01:19:40.846Z,24.78
2018-12-20T01:22:07.399Z,24.96
2018-12-20T01:24:33.579Z,24.99
2018-12-20T01:27:00.044Z,25.19
2018-12-20T01:29:26.405Z,25.01
2018-12-20T01:31:52.636Z,24.92
2018-12-20T01:34:18.971Z,25.07
2018-12-20T01:36:45.338Z,25.10
2018-12-20T01:39:11.768Z,24.78
2018-12-20T01:41:38.165Z,24.82
2018-12-20T01:44:04.370Z,24.87
2018-12-20T01:46:30.672Z,24.55
2018-12-20T01:48:57.110Z,24.72
2018-12-20T01:51:23.442Z,24.59
2018-12-20T01:53:50.842Z,24.56
2018-12-20T01:56:16.154Z,24.64
2018-12-20T01:58:42.605Z,24.43
2018-12-20T02:01:09.118Z,24.64
2018-12-20T02:03:35.223Z,24.48
2018-12-20T02:06:01.518Z,24.51
2018-12-20T02:08:27.868Z,24.58
2018-12-20T02:10:54.206Z,24.35
2018-12-20T02:13:20.504Z,24.24
2018-12-20T02:15:47.007Z,24.21
2018-12-20T02:18:13.403Z,24.07
2018-12-20T02:20:39.589Z,23.90
2018-12-20T02:23:05.940Z,23.64
2018-12-20T02:25:32.430Z,23.43
2018-12-20T02:27:58.836Z,23.33
2018-12-20T02:30:24.956Z,23.01
2018-12-20T02:32:51.439Z,22.70
2018-12-20T02:35:17.671Z,22.61
2018-12-20T02:37:44.058Z,22.45
2018-12-20T02:40:10.448Z,22.45
2018-12-20T02:42:36.684Z,22.36
2018-12-20T02:45:10.816Z,22.18
2018-12-20T02:47:29.614Z,22.05
2018-12-20T02:49:55.701Z,21.97
2018-12-20T02:52:22.063Z,21.76
2018-12-20T02:54:48.424Z,21.83
2018-12-20T02:57:14.863Z,21.55
2018-12-20T02:59:41.044Z,21.48
2018-12-20T03:02:07.477Z,21.57
2018-12-20T03:04:33.788Z,21.30
2018-12-20T03:07:00.117Z,21.32
2018-12-20T03:09:26.430Z,21.38
2018-12-20T03:11:52.868Z,21.23
2018-12-20T03:14:19.276Z,21.23
2018-12-20T03:16:45.556Z,21.16
2018-12-20T03:19:11.894Z,21.08
2018-12-20T03:21:38.284Z,21.09
2018-12-20T03:24:04.677Z,21.04
2018-12-20T03:26:30.924Z,21.02
2018-12-20T03:28:57.534Z,20.89
2018-12-20T03:31:23.626Z,21.01
2018-12-20T03:33:50.437Z,20.93
2018-12-20T03:36:16.441Z,21.00
2018-12-20T03:38:42.842Z,20.89
2018-12-20T03:41:09.101Z,20.97
2018-12-20T03:43:35.500Z,20.88
2018-12-20T03:46:01.856Z,20.79
2018-12-20T03:48:28.166Z,20.74
2018-12-20T03:50:54.508Z,20.79
2018-12-20T03:53:21.058Z,20.52
2018-12-20T03:55:47.309Z,20.63
2018-12-20T03:58:13.644Z,20.80
2018-12-20T04:00:40.130Z,20.97
2018-12-20T04:03:06.724Z,21.00
2018-12-20T04:05:33.003Z,21.39
2018-12-20T04:07:59.605Z,21.03
2018-12-20T04:10:25.757Z,21.16
2018-12-20T04:12:52.077Z,21.14
2018-12-20T04:15:18.627Z,21.25
2018-12-20T04:17:45.140Z,21.38
2018-12-20T04:20:11.350Z,21.42
2018-12-20T04:22:37.695Z,21.55
2018-12-20T04:25:03.991Z,21.67
2018-12-20T04:27:31.459Z,21.81
2018-12-20T04:29:56.728Z,21.88
2018-12-20T04:32:23.097Z,21.99
2018-12-20T04:34:49.599Z,22.00
2018-12-20T04:37:16.060Z,22.19
2018-12-20T04:39:42.209Z,22.21
2018-12-20T04:42:08.755Z,22.33
2018-12-20T04:44:35.161Z,22.39
2018-12-20T04:47:01.301Z,22.31
2018-12-20T04:49:27.673Z,22.59
2018-12-20T04:51:54.207Z,22.41
2018-12-20T04:54:20.860Z,22.42
2018-12-20T04:56:47.163Z,22.35
2018-12-20T04:59:13.591Z,22.18
2018-12-20T05:01:39.893Z,22.22
2018-12-20T05:04:06.629Z,21.99
2018-12-20T05:06:32.742Z,22.03
2018-12-20T05:08:59.078Z,22.00
2018-12-20T05:11:25.487Z,21.95
2018-12-20T05:13:51.788Z,21.86
2018-12-20T05:16:18.167Z,21.63
2018-12-20T05:18:44.595Z,21.67
2018-12-20T05:21:11.036Z,21.67
2018-12-20T05:23:37.323Z,21.70
2018-12-20T05:26:03.842Z,21.80
2018-12-20T05:28:30.010Z,22.27
2018-12-20T05:30:56.483Z,22.16
2018-12-20T05:33:22.709Z,21.85
2018-12-20T05:35:49.213Z,21.88
2018-12-20T05:38:15.547Z,21.81
2018-12-20T05:40:42.027Z,21.77
2018-12-20T05:43:08.348Z,22.09
2018-12-20T05:45:34.665Z,21.92
2018-12-20T05:48:01.104Z,22.00
2018-12-20T05:50:27.341Z,21.84
2018-12-20T05:52:53.695Z,21.61
2018-12-20T05:55:20.205Z,21.78
2018-12-20T05:57:46.488Z,21.67
2018-12-20T06:00:13.192Z,22.17
2018-12-20T06:02:39.604Z,22.15
2018-12-20T06:05:07.847Z,22.38
2018-12-20T06:07:32.231Z,22.02
2018-12-20T06:09:58.472Z,22.04
2018-12-20T06:12:24.919Z,22.06
2018-12-20T06:14:51.177Z,21.96
2018-12-20T06:17:17.662Z,21.82
2018-12-20T06:19:44.053Z,21.69
2018-12-20T06:22:10.374Z,21.71
2018-12-20T06:24:36.684Z,21.77
2018-12-20T06:27:03.114Z,22.40
2018-12-20T06:29:29.455Z,22.26
2018-12-20T06:31:56.186Z,22.32
2018-12-20T06:34:22.595Z,22.67
2018-12-20T06:36:48.947Z,22.32
2018-12-20T06:39:15.276Z,22.31
2018-12-20T06:41:41.681Z,22.52
2018-12-20T06:44:08.065Z,22.77
2018-12-20T06:46:34.444Z,22.65
2018-12-20T06:49:00.867Z,22.51
2018-12-20T06:51:27.186Z,22.03
2018-12-20T06:53:53.607Z,21.63
2018-12-20T06:56:19.939Z,22.20
2018-12-20T06:58:46.355Z,22.08
2018-12-20T07:01:12.661Z,21.90
2018-12-20T07:03:39.035Z,22.12
2018-12-20T07:06:05.458Z,21.65
2018-12-20T07:08:31.897Z,22.03
2018-12-20T07:10:58.347Z,22.51
2018-12-20T07:13:24.702Z,22.38
2018-12-20T07:15:51.085Z,22.12
2018-12-20T07:18:17.594Z,21.79
2018-12-20T07:20:43.942Z,21.71
2018-12-20T07:23:10.330Z,21.17
2018-12-20T07:25:39.251Z,20.99
2018-12-20T07:28:05.548Z,20.96
2018-12-20T07:30:31.921Z,20.91
2018-12-20T07:32:58.278Z,21.34
2018-12-20T07:35:25.007Z,21.00
2018-12-20T07:37:51.400Z,20.97
2018-12-20T07:40:17.777Z,21.52
2018-12-20T07:42:44.144Z,20.45
2018-12-20T07:45:10.561Z,21.72
2018-12-20T07:47:36.888Z,20.95
2018-12-20T07:50:03.374Z,20.62
2018-12-20T07:52:29.755Z,21.05
2018-12-20T07:54:56.146Z,21.29
2018-12-20T07:57:22.574Z,21.02
2018-12-20T07:59:48.970Z,21.16
2018-12-20T08:02:15.423Z,21.58
2018-12-20T08:04:41.857Z,21.78
2018-12-20T08:07:08.232Z,20.88
2018-12-20T08:09:34.562Z,20.79
2018-12-20T08:12:01.908Z,21.73
2018-12-20T08:14:28.249Z,21.36
2018-12-20T08:16:54.614Z,21.44
2018-12-20T08:19:21.067Z,21.94
2018-12-20T08:21:47.539Z,21.67
2018-12-20T08:24:13.877Z,21.13
2018-12-20T08:26:40.238Z,21.00
2018-12-20T08:29:06.646Z,20.85
2018-12-20T08:31:33.128Z,21.18
2018-12-20T08:33:59.665Z,21.38
2018-12-20T08:36:26.057Z,21.05
2018-12-20T08:38:52.404Z,21.54
2018-12-20T08:41:18.781Z,20.58
2018-12-20T08:43:45.214Z,21.23
2018-12-20T08:46:11.505Z,20.99
2018-12-20T08:48:37.924Z,21.00
2018-12-20T08:51:04.262Z,20.81
2018-12-20T08:53:30.653Z,20.53
2018-12-20T08:55:56.995Z,20.74
2018-12-20T08:58:23.419Z,20.55
2018-12-20T09:00:49.788Z,20.42
2018-12-20T09:03:16.119Z,20.25
2018-12-20T09:05:42.465Z,20.93
2018-12-20T09:08:08.865Z,20.55
2018-12-20T09:10:35.351Z,20.86
2018-12-20T09:13:09.328Z,21.39
2018-12-20T09:15:28.183Z,20.84
2018-12-20T09:17:54.639Z,20.99
2018-12-20T09:20:20.961Z,20.61
2018-12-20T09:22:48.303Z,20.76
2018-12-20T09:25:13.703Z,20.63
2018-12-20T09:27:40.109Z,20.78
2018-12-20T09:30:06.552Z,20.77
2018-12-20T09:32:32.896Z,20.41
2018-12-20T09:34:59.403Z,20.37
2018-12-20T09:37:25.941Z,20.44
2018-12-20T09:39:52.265Z,20.55
2018-12-20T09:42:18.781Z,20.65
2018-12-20T09:44:45.176Z,20.37
2018-12-20T09:47:12.190Z,20.05
2018-12-20T09:49:37.994Z,19.91
2018-12-20T09:52:04.503Z,20.07
2018-12-20T09:54:30.805Z,20.04
2018-12-20T09:56:57.215Z,20.24
2018-12-20T09:59:23.623Z,20.12
2018-12-20T10:01:49.996Z,19.64
2018-12-20T10:04:16.379Z,19.55
2018-12-20T10:06:42.723Z,19.75
2018-12-20T10:09:09.072Z,19.81
2018-12-20T10:11:35.456Z,20.07
2018-12-20T10:14:01.787Z,19.81
2018-12-20T10:16:28.167Z,19.78
2018-12-20T10:18:54.505Z,19.76
2018-12-20T10:21:21.945Z,19.75
2018-12-20T10:23:47.344Z,20.53
2018-12-20T10:26:13.711Z,20.25
2018-12-20T10:28:40.135Z,19.88
2018-12-20T10:31:06.530Z,20.24
2018-12-20T10:33:32.829Z,20.15
2018-12-20T10:35:59.171Z,19.87
2018-12-20T10:38:25.503Z,20.24
2018-12-20T10:40:51.913Z,20.13
2018-12-20T10:43:18.243Z,20.23
2018-12-20T10:45:44.579Z,20.39
2018-12-20T10:48:10.961Z,19.99
2018-12-20T10:50:37.316Z,20.34
2018-12-20T10:53:03.652Z,20.67
2018-12-20T10:55:30.101Z,20.63
2018-12-20T10:57:56.517Z,20.66
2018-12-20T11:00:23.889Z,20.82
2018-12-20T11:02:50.237Z,20.67
2018-12-20T11:05:16.577Z,20.76
2018-12-20T11:07:42.976Z,21.07
2018-12-20T11:10:09.326Z,20.80
2018-12-20T11:12:35.694Z,21.69
2018-12-20T11:15:02.058Z,21.37
2018-12-20T11:17:28.384Z,21.48
2018-12-20T11:19:54.744Z,21.34
2018-12-20T11:22:21.121Z,21.39
2018-12-20T11:24:47.515Z,21.39
2018-12-20T11:27:16.187Z,21.28
2018-12-20T11:29:42.509Z,21.26
2018-12-20T11:32:08.906Z,20.96
2018-12-20T11:34:35.236Z,20.75
2018-12-20T11:37:01.661Z,21.16
2018-12-20T11:39:28.029Z,21.10
2018-12-20T11:41:54.431Z,20.98
2018-12-20T11:44:20.788Z,21.59
2018-12-20T11:46:49.043Z,21.48
2018-12-20T11:49:13.560Z,21.13
2018-12-20T11:51:39.946Z,20.84
2018-12-20T11:54:06.261Z,20.81
2018-12-20T11:56:32.643Z,20.97
2018-12-20T11:58:59.027Z,21.45
2018-12-20T12:01:25.555Z,21.29
2018-12-20T12:03:57.344Z,21.19
2018-12-20T12:06:18.284Z,21.26
2018-12-20T12:08:44.735Z,21.58
2018-12-20T12:11:11.082Z,21.54
2018-12-20T12:13:37.408Z,21.42
2018-12-20T12:16:03.804Z,21.74
2018-12-20T12:18:30.135Z,21.70
2018-12-20T12:20:56.520Z,21.29
2018-12-20T12:23:22.863Z,21.23
2018-12-20T12:25:49.192Z,21.20
2018-12-20T12:28:15.595Z,21.21
2018-12-20T12:30:41.983Z,21.15
2018-12-20T12:33:08.359Z,21.19
2018-12-20T12:35:34.725Z,21.13
2018-12-20T12:38:01.136Z,21.26
2018-12-20T12:40:27.488Z,21.22
2018-12-20T12:42:53.881Z,21.20
2018-12-20T12:45:20.225Z,21.47
2018-12-20T12:47:46.631Z,21.44
2018-12-20T12:50:12.942Z,21.56
2018-12-20T12:52:39.286Z,21.93
2018-12-20T12:55:05.620Z,21.98
2018-12-20T12:57:32.008Z,21.87
2018-12-20T13:00:00.616Z,22.00
2018-12-20T13:02:26.963Z,22.23
2018-12-20T13:04:53.295Z,21.82
2018-12-20T13:07:19.733Z,22.04
2018-12-20T13:09:46.096Z,21.77
2018-12-20T13:12:12.515Z,21.64
2018-12-20T13:14:38.856Z,21.39
2018-12-20T13:17:05.225Z,21.43
2018-12-20T13:19:31.682Z,21.32
2018-12-20T13:21:58.025Z,21.35
2018-12-20T13:24:24.435Z,21.45
2018-12-20T13:26:53.052Z,21.71
2018-12-20T13:29:19.487Z,21.71
2018-12-20T13:31:45.882Z,21.78
2018-12-20T13:34:12.214Z,21.87
2018-12-20T13:36:38.552Z,22.09
2018-12-20T13:39:04.973Z,21.94
2018-12-20T13:41:31.424Z,21.99
2018-12-20T13:43:57.783Z,22.16
2018-12-20T13:46:24.129Z,21.88
2018-12-20T13:48:50.541Z,21.67
2018-12-20T13:51:16.875Z,21.68
2018-12-20T13:53:43.247Z,21.73
2018-12-20T13:56:09.599Z,21.61
2018-12-20T13:58:37.728Z,21.87
2018-12-20T14:01:02.383Z,21.70
2018-12-20T14:03:28.896Z,21.52
2018-12-20T14:05:55.215Z,21.60
2018-12-20T14:08:21.557Z,21.54
2018-12-20T14:10:48.329Z,21.83
2018-12-20T14:13:14.712Z,21.81
2018-12-20T14:15:41.073Z,22.11
2018-12-20T14:18:07.513Z,22.04
2018-12-20T14:20:33.959Z,22.45
2018-12-20T14:23:00.379Z,22.43
2018-12-20T14:25:26.705Z,22.40
2018-12-20T14:27:53.036Z,22.28
2018-12-20T14:30:19.417Z,22.45
2018-12-20T14:32:45.727Z,22.80
2018-12-20T14:35:12.058Z,22.78
2018-12-20T14:37:38.472Z,22.89
2018-12-20T14:40:04.893Z,22.86
2018-12-20T14:42:31.326Z,22.70
2018-12-20T14:44:57.652Z,22.84
2018-12-20T14:47:24.002Z,23.05
2018-12-20T14:49:50.330Z,23.09
2018-12-20T14:52:16.749Z,23.22
2018-12-20T14:54:43.104Z,22.99
2018-12-20T14:57:09.449Z,23.16
2018-12-20T14:59:35.961Z,23.03
2018-12-20T15:02:02.343Z,23.04
2018-12-20T15:04:28.738Z,22.84
2018-12-20T15:06:55.071Z,22.74
2018-12-20T15:09:21.478Z,22.84
2018-12-20T15:11:47.833Z,23.06
2018-12-20T15:14:14.193Z,22.91
2018-12-20T15:16:40.633Z,22.87
2018-12-20T15:19:06.972Z,23.06
2018-12-20T15:21:33.309Z,22.98
2018-12-20T15:23:59.636Z,23.20
2018-12-20T15:26:25.995Z,23.09
2018-12-20T15:28:52.324Z,22.94
2018-12-20T15:31:18.792Z,22.87
2018-12-20T15:33:45.133Z,23.00
2018-12-20T15:36:11.443Z,23.05
2018-12-20T15:38:37.785Z,22.91
2018-12-20T15:41:04.173Z,22.71
2018-12-20T15:43:30.523Z,22.66
2018-12-20T15:45:56.868Z,22.84
2018-12-20T15:48:23.219Z,23.09
2018-12-20T15:50:49.680Z,23.06
2018-12-20T15:53:16.006Z,22.72
2018-12-20T15:55:53.017Z,23.12
2018-12-20T15:58:20.173Z,22.66
2018-12-20T16:00:45.732Z,22.47
2018-12-20T16:03:12.222Z,22.48
2018-12-20T16:05:38.602Z,22.53
2018-12-20T16:08:04.971Z,22.42
2018-12-20T16:10:31.316Z,22.37
2018-12-20T16:12:57.639Z,22.24
2018-12-20T16:15:24.019Z,22.24
2018-12-20T16:17:50.679Z,22.28
2018-12-20T16:20:17.019Z,22.29
2018-12-20T16:22:43.371Z,22.25
2018-12-20T16:25:09.753Z,22.25
2018-12-20T16:27:36.096Z,22.10
2018-12-20T16:30:02.434Z,21.80
2018-12-20T16:32:28.762Z,21.81
2018-12-20T16:34:55.151Z,21.92
2018-12-20T16:37:21.685Z,21.75
2018-12-20T16:39:48.098Z,21.64
2018-12-20T16:42:14.413Z,21.52
2018-12-20T16:44:40.780Z,21.74
2018-12-20T16:47:07.232Z,21.62
2018-12-20T16:49:33.552Z,21.71
2018-12-20T16:51:59.925Z,21.80
2018-12-20T16:54:26.279Z,21.84
2018-12-20T16:56:52.633Z,21.57
2018-12-20T16:59:18.967Z,21.65
2018-12-20T17:01:45.295Z,21.47
2018-12-20T17:04:11.680Z,21.45
2018-12-20T17:06:38.026Z,21.38
2018-12-20T17:09:04.379Z,21.68
2018-12-20T17:11:30.720Z,21.61
2018-12-20T17:13:57.071Z,21.36
2018-12-20T17:16:23.406Z,21.24
2018-12-20T17:18:49.764Z,21.10
2018-12-20T17:21:16.179Z,21.11
2018-12-20T17:23:42.504Z,21.02
2018-12-20T17:26:08.863Z,21.01
2018-12-20T17:28:35.192Z,20.94
2018-12-20T17:31:01.539Z,20.87
2018-12-20T17:33:27.873Z,20.93
2018-12-20T17:35:54.251Z,20.99
2018-12-20T17:38:20.580Z,20.81
2018-12-20T17:40:46.962Z,21.11
2018-12-20T17:43:13.295Z,21.23
2018-12-20T17:45:39.626Z,21.32
2018-12-20T17:48:05.968Z,21.41
2018-12-20T17:50:32.315Z,21.48
2018-12-20T17:52:58.720Z,21.51
2018-12-20T17:55:25.082Z,21.58
2018-12-20T17:57:51.458Z,21.64
2018-12-20T18:00:17.759Z,21.63
2018-12-20T18:02:44.120Z,21.68
2018-12-20T18:05:10.590Z,21.87
2018-12-20T18:07:36.960Z,22.10
2018-12-20T18:10:03.449Z,22.23
2018-12-20T18:12:29.884Z,22.31
2018-12-20T18:14:56.216Z,22.35
2018-12-20T18:17:22.701Z,22.10
2018-12-20T18:19:49.036Z,22.15
2018-12-20T18:22:15.338Z,22.23
2018-12-20T18:24:41.662Z,22.13
2018-12-20T18:27:08.006Z,22.08
2018-12-20T18:29:34.369Z,21.92
2018-12-20T18:32:00.745Z,22.06
2018-12-20T18:34:27.059Z,22.01
2018-12-20T18:36:53.412Z,21.94
2018-12-20T18:39:19.801Z,22.07
2018-12-20T18:41:46.260Z,21.87
2018-12-20T18:44:12.798Z,21.92
2018-12-20T18:46:39.065Z,21.97
2018-12-20T18:49:05.395Z,22.07
2018-12-20T18:51:31.761Z,21.99
2018-12-20T18:53:58.225Z,22.13
2018-12-20T18:56:24.566Z,22.18
2018-12-20T18:58:50.904Z,22.21
2018-12-20T19:01:17.230Z,22.29
2018-12-20T19:03:43.586Z,22.37
2018-12-20T19:06:09.948Z,22.35
2018-12-20T19:08:36.350Z,22.29
2018-12-20T19:11:02.758Z,22.25
2018-12-20T19:13:29.200Z,22.42
2018-12-20T19:15:55.494Z,22.27
2018-12-20T19:18:21.896Z,22.24
2018-12-20T19:20:48.263Z,22.29
2018-12-20T19:23:14.692Z,22.25
2018-12-20T19:25:41.065Z,22.19
2018-12-20T19:28:07.398Z,22.40
2018-12-20T19:30:33.799Z,22.62
2018-12-20T19:33:00.161Z,22.76
2018-12-20T19:35:26.545Z,22.88
2018-12-20T19:37:52.922Z,22.85
2018-12-20T19:40:19.299Z,22.85
2018-12-20T19:42:45.717Z,22.98
2018-12-20T19:45:12.109Z,23.22
2018-12-20T19:47:38.453Z,23.32
2018-12-20T19:50:05.273Z,23.24
2018-12-20T19:52:31.269Z,23.24
2018-12-20T19:54:57.620Z,23.30
2018-12-20T19:57:24.021Z,23.31
2018-12-20T19:59:50.363Z,23.27
2018-12-20T20:02:16.785Z,23.41
2018-12-20T20:04:43.146Z,23.46
2018-12-20T20:07:09.530Z,23.35
2018-12-20T20:09:35.853Z,23.37
2018-12-20T20:12:02.231Z,23.30
2018-12-20T20:14:28.615Z,23.32
2018-12-20T20:16:55.009Z,23.28
2018-12-20T20:19:21.413Z,23.21
2018-12-20T20:21:47.743Z,23.31
2018-12-20T20:24:14.143Z,23.53
2018-12-20T20:26:40.540Z,23.58
2018-12-20T20:29:06.940Z,23.67
2018-12-20T20:31:33.272Z,23.68
2018-12-20T20:33:59.654Z,23.81
2018-12-20T20:36:25.988Z,23.77
2018-12-20T20:38:52.340Z,23.78
2018-12-20T20:41:18.774Z,23.86
2018-12-20T20:43:45.235Z,24.01
2018-12-20T20:46:11.795Z,24.00
2018-12-20T20:48:38.127Z,24.02
2018-12-20T20:51:04.458Z,23.90
2018-12-20T20:53:30.852Z,24.03
2018-12-20T20:55:57.181Z,23.93
2018-12-20T20:58:23.659Z,24.07
2018-12-20T21:00:49.919Z,24.00
2018-12-20T21:03:16.389Z,23.87
2018-12-20T21:05:42.721Z,23.89
2018-12-20T21:08:09.127Z,23.93
2018-12-20T21:10:35.482Z,23.89
2018-12-20T21:13:01.854Z,23.89
2018-12-20T21:15:28.248Z,23.90
2018-12-20T21:17:54.626Z,23.95
2018-12-20T21:20:20.950Z,23.98
2018-12-20T21:22:47.331Z,23.93
2018-12-20T21:25:13.661Z,24.13
2018-12-20T21:27:40.046Z,24.28
2018-12-20T21:30:06.532Z,24.11
2018-12-20T21:32:32.755Z,24.23
2018-12-20T21:34:59.141Z,24.28
2018-12-20T21:37:25.502Z,24.33
2018-12-20T21:39:51.858Z,24.27
2018-12-20T21:42:18.242Z,24.22
2018-12-20T21:44:44.579Z,24.27
2018-12-20T21:47:10.925Z,24.28
2018-12-20T21:49:37.267Z,24.27
2018-12-20T21:52:03.663Z,24.22
2018-12-20T21:54:29.999Z,24.25
2018-12-20T21:56:56.323Z,24.29
2018-12-20T21:59:22.729Z,24.41
2018-12-20T22:01:49.161Z,24.40
2018-12-20T22:04:15.487Z,24.39
2018-12-20T22:06:41.876Z,24.38
2018-12-20T22:09:08.214Z,24.36
2018-12-20T22:11:34.595Z,24.28
2018-12-20T22:14:00.998Z,24.45
2018-12-20T22:16:27.335Z,24.51
2018-12-20T22:18:53.761Z,24.56
2018-12-20T22:21:20.091Z,24.69
2018-12-20T22:23:46.525Z,24.62
2018-12-20T22:26:12.905Z,24.59
2018-12-20T22:28:39.263Z,24.68
2018-12-20T22:31:05.661Z,24.63
2018-12-20T22:33:32.060Z,24.78
2018-12-20T22:35:58.441Z,24.77
2018-12-20T22:38:24.779Z,24.76
2018-12-20T22:40:51.132Z,24.75
2018-12-20T22:43:17.463Z,24.74
2018-12-20T22:45:43.923Z,24.72
2018-12-20T22:48:10.240Z,24.77
2018-12-20T22:50:36.576Z,24.88
2018-12-20T22:53:02.957Z,24.89
2018-12-20T22:55:29.348Z,24.89
2018-12-20T22:57:55.730Z,24.83
2018-12-20T23:00:22.047Z,24.91
2018-12-20T23:02:48.430Z,24.89
2018-12-20T23:05:14.816Z,24.85
2018-12-20T23:07:41.154Z,24.86
2018-12-20T23:10:07.554Z,24.91
2018-12-20T23:12:33.905Z,25.01
2018-12-20T23:15:00.282Z,25.04
2018-12-20T23:17:26.689Z,25.19
2018-12-20T23:19:53.087Z,25.10
2018-12-20T23:22:19.457Z,25.00
2018-12-20T23:24:45.783Z,25.06
2018-12-20T23:27:12.165Z,25.12
2018-12-20T23:29:38.518Z,25.22
2018-12-20T23:32:04.887Z,25.33
2018-12-20T23:34:31.215Z,25.53
2018-12-20T23:36:57.551Z,25.48
2018-12-20T23:39:23.902Z,25.48
2018-12-20T23:41:50.243Z,25.37
2018-12-20T23:44:16.675Z,25.40
2018-12-20T23:46:43.004Z,25.46
2018-12-20T23:49:09.334Z,25.44
2018-12-20T23:51:35.776Z,25.57
2018-12-20T23:54:02.081Z,25.61
2018-12-20T23:56:28.455Z,25.48
2018-12-20T23:58:54.793Z,25.51
